Detalii statie AGRONOVA [00001CEC]

Toti senzorii

Date Temperatura solului [C]Precipitatii [mm]Voltaj baterie [mV]Leaf Wetness [Min]HC Air temperature [C]HC Relative humidity [%]Punctul de roua [C]
medieminmaxsumaultimatimpmedieminmaxmediemediemin
2017-06-25 06:00:00 24.8 24.5 25 0 6660 16.44 15.63 18.09 0 0 0
2017-06-25 07:00:00 24.6 24.5 24.8 0 6718 19.77 18.31 20.92 0 0 0
2017-06-25 08:00:00 24.5 24.4 24.7 0 6796 22.92 21.35 24.36 0 0 0
2017-06-25 09:00:00 24.8 24.6 25.1 0 6864 25.3 24.27 26.58 0 0 0
2017-06-25 10:00:00 25.5 25.1 26 0 7118 27.68 26.54 29.18 0 0 0
2017-06-25 11:00:00 26.7 26.1 27.4 0 7246 30.08 28.88 31.33 0 0 0
2017-06-25 12:00:00 28 27.4 28.7 0 7236 32.29 31.33 33.41 0 0 0
2017-06-25 13:00:00 29.5 28.9 30.1 0 7246 33.71 33.15 35.33 0 0 0
2017-06-25 14:00:00 30.7 30.2 31.4 0 7236 34.32 33.56 35.58 0 0 0
2017-06-25 15:00:00 31.7 31.3 32 0 7236 34.87 34.38 35.29 0 0 0
2017-06-25 16:00:00 32.1 32 32.4 0 7236 35.01 34.6 36 0 0 0
2017-06-25 17:00:00 32.2 32.2 32.4 0 7236 34.84 34.47 35.33 0 0 0
2017-06-25 18:00:00 31.8 31.6 32.1 0 6992 33.59 32.87 34.41 0 0 0
2017-06-25 19:00:00 31.2 30.7 31.5 0 6922 31.91 31.11 33 0 0 0
2017-06-25 20:00:00 30.5 30.2 31.2 0 6816 29.27 27.46 30.82 0 0 0
2017-06-25 21:00:00 29.8 29.4 30.2 0 6728 26.22 24.73 27.39 0 0 0
2017-06-25 22:00:00 29.1 28.8 29.5 0 6688 24.46 23.51 25.58 0 0 0
2017-06-25 23:00:00 28.5 28.3 28.9 0 6650 23.1 21.74 23.93 0 0 0
2017-06-26 00:00:00 28 27.9 28.4 0 6640 21.31 20.37 22.43 0 0 0
2017-06-26 01:00:00 27.5 27.2 27.8 0 6630 20.06 19.62 21 0 0 0
2017-06-26 02:00:00 27 26.8 27.4 0 6620 18.4 16.86 19.81 0 0 0
2017-06-26 03:00:00 26.5 26.5 26.8 0 6610 17.95 17.05 18.76 0 0 0
2017-06-26 04:00:00 26.2 26 26.4 0 6620 17.29 16.96 17.97 0 0 0
2017-06-26 05:00:00 25.9 25.8 26 0 6610 16.74 16.13 17.97 0 0 0
2017-06-26 06:00:00 25.5 25.4 25.8 0 6650 17.65 17.1 18.45 0 0 0
2017-06-26 07:00:00 25.3 25.1 25.4 0 6728 20.67 19.13 22.51 0 0 0
2017-06-26 08:00:00 25.2 25.1 25.4 0 6796 24.35 22.84 26.12 0 0 0
2017-06-26 09:00:00 25.5 25.3 25.8 0 6854 28.73 25.9 30.76 0 0 0
2017-06-26 10:00:00 26.3 25.9 26.7 0 7080 30.59 29.02 32.39 0 0 0
2017-06-26 11:00:00 27.5 27 28.1 0 7236 32.85 31.45 34.01 0 0 0
2017-06-26 12:00:00 28.8 28.1 29.5 0 7236 34.38 33.61 35.06 0 0 0
2017-06-26 13:00:00 30.2 29.5 30.9 0 7236 34.76 34.35 35.49 0 0 0
2017-06-26 14:00:00 31.4 30.9 31.9 0 7246 35.35 34.47 35.99 0 0 0
2017-06-26 15:00:00 32.3 32 32.5 0 7246 35.2 34.46 35.52 0 0 0
2017-06-26 16:00:00 32.7 32.7 32.9 0 7246 35.17 34.66 35.66 0 0 0
2017-06-26 17:00:00 32.6 32.5 32.9 0 7226 34.42 34.02 35.01 0 0 0
2017-06-26 18:00:00 32.3 32 32.5 0 7070 33.11 32.36 34.01 0 0 0
2017-06-26 19:00:00 31.7 31.4 31.9 0 6942 31.48 30.13 32.39 0 0 0
2017-06-26 20:00:00 31 30.8 31.4 0 6864 29.11 27.25 30.18 0 0 0
2017-06-26 21:00:00 30.3 30 30.9 0 6756 25.63 24.35 26.95 0 0 0
2017-06-26 22:00:00 29.7 29.5 30.1 0 6688 24.94 24.13 25.61 0 0 0
2017-06-26 23:00:00 29.2 28.9 29.5 0 6660 23.28 22.61 23.93 0 0 0
2017-06-27 00:00:00 28.6 28.5 28.9 0 6640 22 21.55 22.49 0 0 0
2017-06-27 01:00:00 28.2 27.9 28.4 0 6640 21.3 20.9 21.87 0 0 0
2017-06-27 02:00:00 27.8 27.5 28 0 6630 20.29 19.88 21.06 0 0 0
2017-06-27 03:00:00 27.3 27 27.6 0 6630 19.35 18.87 20.1 0 0 0
2017-06-27 04:00:00 26.9 26.8 27.1 0 6610 18.21 17.77 18.78 0 0 0
2017-06-27 05:00:00 26.5 26.3 26.7 0 6610 17.79 17.67 17.91 0 0 0